首页
METAR-TAF:

METAR-TAF

机场 :

Buochs, 瑞士

纬度: 46-58-28N, 经度: 8-23-49E, 海拔: 449米

当前天气观测

该预报发布于25分钟前的16:50 UTC
风速2节,风向多变
温度 11°C
湿度 87%
气压 1025 hPa
能见度10公里或以上
多云层高于7000英尺
小雨

METAR: LSZC 291650Z AUTO VRB02KT 9999 -RA BKN070 11/09 Q1025

时间: 18:15 (17:15 UTC)

预报

该预报发布于2小时和50分钟前的14:25 UTC
预报有效从29日的 15点(UTC)到 29日的 24点(UTC)
风速4节,风向东北
能见度10公里或以上
少量云层高于3000英尺
多云层高于6000英尺
几率 40% :
短暂存在
从 29日的 15点(UTC)到 29日的 18点(UTC)
能見度: 4000
雨, 毛毛雨

TAF: LSZC 291425Z 2915/2924 05004KT 9999 FEW030 BKN060 PROB40 TEMPO 2915/2918 4000 RADZ

超过4000个机场的气象观测和天气预报(METAR&TAF报告)。

可查询的气象台以黄色和红色小点在地图上表示。

将鼠标移到小点上方,可查看气象台名称。

然后点击查看天气观测和预报。

如需切换地图:点击带黑十字的绿色按钮放大地图;点击带横线的绿色按钮缩小地图;或者点击绿色箭头查看邻近地区的地图。


METAR-TAF: